sensor_id;sensor_type;location;lat;lon;timestamp;P1;durP1;ratioP1;P2;durP2;ratioP2
82948;SDS011;72736;50.236;18.876;2024-01-27T00:00:44;11.40;;;4.80;;
82948;SDS011;72736;50.236;18.876;2024-01-27T00:05:51;8.50;;;3.10;;
82948;SDS011;72736;50.236;18.876;2024-01-27T00:10:56;4.10;;;1.60;;
82948;SDS011;72736;50.236;18.876;2024-01-27T00:16:02;8.80;;;2.40;;
82948;SDS011;72736;50.236;18.876;2024-01-27T00:21:09;7.30;;;2.60;;
82948;SDS011;72736;50.236;18.876;2024-01-27T00:26:15;8.50;;;2.90;;
82948;SDS011;72736;50.236;18.876;2024-01-27T00:31:20;10.80;;;4.40;;
82948;SDS011;72736;50.236;18.876;2024-01-27T00:36:27;11.00;;;3.50;;
82948;SDS011;72736;50.236;18.876;2024-01-27T00:41:33;6.10;;;1.60;;
82948;SDS011;72736;50.236;18.876;2024-01-27T00:46:38;6.90;;;2.40;;
82948;SDS011;72736;50.236;18.876;2024-01-27T00:51:44;9.20;;;2.80;;
82948;SDS011;72736;50.236;18.876;2024-01-27T00:56:49;6.00;;;2.70;;
82948;SDS011;72736;50.236;18.876;2024-01-27T01:01:55;7.50;;;4.60;;
82948;SDS011;72736;50.236;18.876;2024-01-27T01:07:01;6.50;;;1.90;;
82948;SDS011;72736;50.236;18.876;2024-01-27T01:12:07;6.80;;;2.10;;
82948;SDS011;72736;50.236;18.876;2024-01-27T01:17:12;7.70;;;1.50;;
82948;SDS011;72736;50.236;18.876;2024-01-27T01:22:18;8.20;;;2.70;;
82948;SDS011;72736;50.236;18.876;2024-01-27T01:27:24;8.80;;;3.40;;
82948;SDS011;72736;50.236;18.876;2024-01-27T01:32:30;8.10;;;2.10;;
82948;SDS011;72736;50.236;18.876;2024-01-27T01:37:36;8.70;;;2.40;;
82948;SDS011;72736;50.236;18.876;2024-01-27T01:42:42;8.40;;;2.30;;
82948;SDS011;72736;50.236;18.876;2024-01-27T01:47:53;6.50;;;1.90;;
82948;SDS011;72736;50.236;18.876;2024-01-27T01:52:59;5.90;;;1.50;;
82948;SDS011;72736;50.236;18.876;2024-01-27T01:58:07;5.50;;;1.50;;
82948;SDS011;72736;50.236;18.876;2024-01-27T02:03:12;5.50;;;2.10;;
82948;SDS011;72736;50.236;18.876;2024-01-27T02:08:18;7.00;;;1.60;;
82948;SDS011;72736;50.236;18.876;2024-01-27T02:13:24;9.10;;;2.60;;
82948;SDS011;72736;50.236;18.876;2024-01-27T02:18:30;11.00;;;2.40;;
82948;SDS011;72736;50.236;18.876;2024-01-27T02:23:36;7.20;;;2.40;;
82948;SDS011;72736;50.236;18.876;2024-01-27T02:28:42;4.80;;;1.10;;
82948;SDS011;72736;50.236;18.876;2024-01-27T02:33:47;8.00;;;1.60;;
82948;SDS011;72736;50.236;18.876;2024-01-27T02:38:53;7.00;;;1.70;;
82948;SDS011;72736;50.236;18.876;2024-01-27T02:43:59;6.60;;;1.70;;
82948;SDS011;72736;50.236;18.876;2024-01-27T02:49:04;6.40;;;1.90;;
82948;SDS011;72736;50.236;18.876;2024-01-27T02:54:10;5.30;;;1.40;;
82948;SDS011;72736;50.236;18.876;2024-01-27T02:59:16;3.40;;;1.40;;
82948;SDS011;72736;50.236;18.876;2024-01-27T03:04:22;6.50;;;1.10;;
82948;SDS011;72736;50.236;18.876;2024-01-27T03:09:28;13.80;;;3.80;;
82948;SDS011;72736;50.236;18.876;2024-01-27T03:14:34;8.00;;;2.50;;
82948;SDS011;72736;50.236;18.876;2024-01-27T03:19:40;9.90;;;2.90;;
82948;SDS011;72736;50.236;18.876;2024-01-27T03:24:49;8.90;;;1.90;;
82948;SDS011;72736;50.236;18.876;2024-01-27T03:30:00;11.90;;;2.70;;
82948;SDS011;72736;50.236;18.876;2024-01-27T03:35:07;9.00;;;2.10;;
82948;SDS011;72736;50.236;18.876;2024-01-27T03:40:13;16.00;;;4.40;;
82948;SDS011;72736;50.236;18.876;2024-01-27T03:45:19;7.40;;;2.50;;
82948;SDS011;72736;50.236;18.876;2024-01-27T03:50:24;8.30;;;3.30;;
82948;SDS011;72736;50.236;18.876;2024-01-27T03:55:30;9.20;;;2.70;;
82948;SDS011;72736;50.236;18.876;2024-01-27T04:00:37;8.30;;;2.60;;
82948;SDS011;72736;50.236;18.876;2024-01-27T04:05:47;8.30;;;2.40;;
82948;SDS011;72736;50.236;18.876;2024-01-27T04:10:53;7.40;;;2.60;;
82948;SDS011;72736;50.236;18.876;2024-01-27T04:15:58;8.00;;;2.40;;
82948;SDS011;72736;50.236;18.876;2024-01-27T04:26:09;5.10;;;1.70;;
82948;SDS011;72736;50.236;18.876;2024-01-27T04:31:15;7.80;;;2.50;;
82948;SDS011;72736;50.236;18.876;2024-01-27T04:36:27;6.90;;;2.70;;
82948;SDS011;72736;50.236;18.876;2024-01-27T04:41:34;6.80;;;2.00;;
82948;SDS011;72736;50.236;18.876;2024-01-27T04:46:45;10.90;;;2.40;;
82948;SDS011;72736;50.236;18.876;2024-01-27T04:51:50;6.60;;;2.70;;
82948;SDS011;72736;50.236;18.876;2024-01-27T04:56:56;6.70;;;1.40;;
82948;SDS011;72736;50.236;18.876;2024-01-27T05:02:02;7.30;;;1.80;;
82948;SDS011;72736;50.236;18.876;2024-01-27T05:07:08;3.60;;;1.90;;
82948;SDS011;72736;50.236;18.876;2024-01-27T05:12:14;5.70;;;1.50;;
82948;SDS011;72736;50.236;18.876;2024-01-27T05:17:19;6.90;;;1.80;;
82948;SDS011;72736;50.236;18.876;2024-01-27T05:22:25;7.00;;;1.80;;
82948;SDS011;72736;50.236;18.876;2024-01-27T05:27:31;5.90;;;1.20;;
82948;SDS011;72736;50.236;18.876;2024-01-27T05:32:36;5.10;;;1.50;;
82948;SDS011;72736;50.236;18.876;2024-01-27T05:37:42;5.50;;;1.30;;
82948;SDS011;72736;50.236;18.876;2024-01-27T05:42:48;5.40;;;1.00;;
82948;SDS011;72736;50.236;18.876;2024-01-27T05:47:53;6.60;;;1.50;;
82948;SDS011;72736;50.236;18.876;2024-01-27T05:52:59;8.90;;;1.60;;
82948;SDS011;72736;50.236;18.876;2024-01-27T05:58:05;6.40;;;1.50;;
82948;SDS011;72736;50.236;18.876;2024-01-27T06:03:11;10.20;;;1.30;;
82948;SDS011;72736;50.236;18.876;2024-01-27T06:08:16;7.30;;;1.60;;
82948;SDS011;72736;50.236;18.876;2024-01-27T06:13:22;7.00;;;1.40;;
82948;SDS011;72736;50.236;18.876;2024-01-27T06:18:28;6.00;;;1.20;;
82948;SDS011;72736;50.236;18.876;2024-01-27T06:23:34;4.20;;;1.10;;
82948;SDS011;72736;50.236;18.876;2024-01-27T06:28:39;6.20;;;1.60;;
82948;SDS011;72736;50.236;18.876;2024-01-27T06:33:45;7.20;;;1.60;;
82948;SDS011;72736;50.236;18.876;2024-01-27T06:38:52;11.50;;;2.10;;
82948;SDS011;72736;50.236;18.876;2024-01-27T06:43:57;6.10;;;1.60;;
82948;SDS011;72736;50.236;18.876;2024-01-27T06:49:03;7.50;;;1.70;;
82948;SDS011;72736;50.236;18.876;2024-01-27T06:54:09;9.00;;;2.00;;
82948;SDS011;72736;50.236;18.876;2024-01-27T06:59:15;5.70;;;1.50;;
82948;SDS011;72736;50.236;18.876;2024-01-27T07:04:21;7.20;;;1.70;;
82948;SDS011;72736;50.236;18.876;2024-01-27T07:09:27;4.80;;;1.90;;
82948;SDS011;72736;50.236;18.876;2024-01-27T07:14:32;16.40;;;2.20;;
82948;SDS011;72736;50.236;18.876;2024-01-27T07:19:38;9.60;;;1.80;;
82948;SDS011;72736;50.236;18.876;2024-01-27T07:24:44;15.70;;;2.50;;
82948;SDS011;72736;50.236;18.876;2024-01-27T07:29:53;8.40;;;1.80;;
82948;SDS011;72736;50.236;18.876;2024-01-27T07:34:58;7.20;;;1.70;;
82948;SDS011;72736;50.236;18.876;2024-01-27T07:40:08;7.20;;;1.70;;
82948;SDS011;72736;50.236;18.876;2024-01-27T07:45:15;8.20;;;1.90;;
82948;SDS011;72736;50.236;18.876;2024-01-27T07:50:21;10.80;;;2.40;;
82948;SDS011;72736;50.236;18.876;2024-01-27T07:55:27;12.80;;;1.90;;
82948;SDS011;72736;50.236;18.876;2024-01-27T08:00:32;9.20;;;1.80;;
82948;SDS011;72736;50.236;18.876;2024-01-27T08:05:38;6.90;;;1.60;;
82948;SDS011;72736;50.236;18.876;2024-01-27T08:10:45;8.10;;;1.90;;
82948;SDS011;72736;50.236;18.876;2024-01-27T08:15:51;7.40;;;1.70;;
82948;SDS011;72736;50.236;18.876;2024-01-27T08:20:56;4.00;;;1.50;;
82948;SDS011;72736;50.236;18.876;2024-01-27T08:26:02;5.50;;;1.60;;
82948;SDS011;72736;50.236;18.876;2024-01-27T08:31:08;7.10;;;1.80;;
82948;SDS011;72736;50.236;18.876;2024-01-27T08:41:19;10.50;;;1.80;;
82948;SDS011;72736;50.236;18.876;2024-01-27T08:46:30;6.90;;;2.10;;
82948;SDS011;72736;50.236;18.876;2024-01-27T08:51:36;9.50;;;1.90;;
82948;SDS011;72736;50.236;18.876;2024-01-27T08:56:41;11.50;;;1.90;;
82948;SDS011;72736;50.236;18.876;2024-01-27T09:01:47;11.20;;;2.30;;
82948;SDS011;72736;50.236;18.876;2024-01-27T09:06:53;6.40;;;1.90;;
82948;SDS011;72736;50.236;18.876;2024-01-27T09:11:59;17.20;;;3.70;;
82948;SDS011;72736;50.236;18.876;2024-01-27T09:17:05;7.10;;;1.70;;
82948;SDS011;72736;50.236;18.876;2024-01-27T09:22:11;12.80;;;2.70;;
82948;SDS011;72736;50.236;18.876;2024-01-27T09:27:17;7.90;;;2.80;;
82948;SDS011;72736;50.236;18.876;2024-01-27T09:32:22;7.70;;;2.80;;
82948;SDS011;72736;50.236;18.876;2024-01-27T09:37:28;7.00;;;2.10;;
82948;SDS011;72736;50.236;18.876;2024-01-27T09:42:34;10.20;;;2.60;;
82948;SDS011;72736;50.236;18.876;2024-01-27T09:47:42;13.60;;;2.60;;
82948;SDS011;72736;50.236;18.876;2024-01-27T09:52:49;14.10;;;2.60;;
82948;SDS011;72736;50.236;18.876;2024-01-27T09:57:55;10.80;;;3.00;;
82948;SDS011;72736;50.236;18.876;2024-01-27T10:03:01;10.80;;;2.80;;
82948;SDS011;72736;50.236;18.876;2024-01-27T10:08:07;8.20;;;2.50;;
82948;SDS011;72736;50.236;18.876;2024-01-27T10:13:13;8.70;;;2.40;;
82948;SDS011;72736;50.236;18.876;2024-01-27T10:18:20;8.90;;;2.40;;
82948;SDS011;72736;50.236;18.876;2024-01-27T10:23:26;9.00;;;2.40;;
82948;SDS011;72736;50.236;18.876;2024-01-27T10:28:32;12.10;;;2.70;;
82948;SDS011;72736;50.236;18.876;2024-01-27T10:33:38;11.10;;;3.60;;
82948;SDS011;72736;50.236;18.876;2024-01-27T10:38:44;8.70;;;2.60;;
82948;SDS011;72736;50.236;18.876;2024-01-27T10:43:49;7.40;;;2.20;;
82948;SDS011;72736;50.236;18.876;2024-01-27T10:48:57;10.30;;;2.30;;
82948;SDS011;72736;50.236;18.876;2024-01-27T10:54:06;10.90;;;2.50;;
82948;SDS011;72736;50.236;18.876;2024-01-27T10:59:14;11.40;;;3.60;;
82948;SDS011;72736;50.236;18.876;2024-01-27T11:04:23;11.90;;;4.00;;
82948;SDS011;72736;50.236;18.876;2024-01-27T11:09:32;9.50;;;3.10;;
82948;SDS011;72736;50.236;18.876;2024-01-27T11:14:40;9.00;;;3.70;;
82948;SDS011;72736;50.236;18.876;2024-01-27T11:19:49;10.80;;;2.40;;
82948;SDS011;72736;50.236;18.876;2024-01-27T11:25:04;12.50;;;4.10;;
82948;SDS011;72736;50.236;18.876;2024-01-27T11:30:26;7.50;;;2.30;;
82948;SDS011;72736;50.236;18.876;2024-01-27T11:35:32;11.70;;;2.50;;
82948;SDS011;72736;50.236;18.876;2024-01-27T11:40:45;9.60;;;2.70;;
82948;SDS011;72736;50.236;18.876;2024-01-27T11:45:56;9.50;;;2.60;;
82948;SDS011;72736;50.236;18.876;2024-01-27T11:51:07;20.40;;;4.70;;
82948;SDS011;72736;50.236;18.876;2024-01-27T11:56:15;9.30;;;2.80;;
82948;SDS011;72736;50.236;18.876;2024-01-27T12:01:20;10.40;;;4.00;;
82948;SDS011;72736;50.236;18.876;2024-01-27T12:06:27;11.70;;;4.70;;
82948;SDS011;72736;50.236;18.876;2024-01-27T12:11:34;10.20;;;3.80;;
82948;SDS011;72736;50.236;18.876;2024-01-27T12:16:41;10.70;;;2.90;;
82948;SDS011;72736;50.236;18.876;2024-01-27T12:21:50;11.60;;;3.80;;
82948;SDS011;72736;50.236;18.876;2024-01-27T12:26:56;15.90;;;5.80;;
82948;SDS011;72736;50.236;18.876;2024-01-27T12:32:01;19.10;;;5.10;;
82948;SDS011;72736;50.236;18.876;2024-01-27T12:37:08;13.40;;;3.60;;
82948;SDS011;72736;50.236;18.876;2024-01-27T12:42:16;8.20;;;2.70;;
82948;SDS011;72736;50.236;18.876;2024-01-27T12:47:22;15.20;;;5.90;;
82948;SDS011;72736;50.236;18.876;2024-01-27T12:52:28;13.40;;;6.00;;
82948;SDS011;72736;50.236;18.876;2024-01-27T12:57:34;13.90;;;6.00;;
82948;SDS011;72736;50.236;18.876;2024-01-27T13:02:40;9.70;;;5.30;;
82948;SDS011;72736;50.236;18.876;2024-01-27T13:07:46;12.70;;;3.90;;
82948;SDS011;72736;50.236;18.876;2024-01-27T13:12:52;15.00;;;4.90;;
82948;SDS011;72736;50.236;18.876;2024-01-27T13:17:58;11.50;;;4.40;;
82948;SDS011;72736;50.236;18.876;2024-01-27T13:23:04;11.70;;;4.40;;
82948;SDS011;72736;50.236;18.876;2024-01-27T13:28:10;8.50;;;3.50;;
82948;SDS011;72736;50.236;18.876;2024-01-27T13:33:16;11.10;;;5.40;;
82948;SDS011;72736;50.236;18.876;2024-01-27T13:38:22;13.70;;;5.40;;
82948;SDS011;72736;50.236;18.876;2024-01-27T13:43:29;17.90;;;6.80;;
82948;SDS011;72736;50.236;18.876;2024-01-27T13:48:35;26.00;;;9.30;;
82948;SDS011;72736;50.236;18.876;2024-01-27T13:53:41;22.50;;;8.70;;
82948;SDS011;72736;50.236;18.876;2024-01-27T13:58:50;13.80;;;6.50;;
82948;SDS011;72736;50.236;18.876;2024-01-27T14:09:01;14.50;;;5.90;;
82948;SDS011;72736;50.236;18.876;2024-01-27T14:14:07;14.20;;;6.00;;
82948;SDS011;72736;50.236;18.876;2024-01-27T14:19:12;13.60;;;6.90;;
82948;SDS011;72736;50.236;18.876;2024-01-27T14:24:18;12.90;;;6.10;;
82948;SDS011;72736;50.236;18.876;2024-01-27T14:29:24;19.90;;;6.50;;
82948;SDS011;72736;50.236;18.876;2024-01-27T14:34:30;18.10;;;8.00;;
82948;SDS011;72736;50.236;18.876;2024-01-27T14:39:35;15.10;;;7.50;;
82948;SDS011;72736;50.236;18.876;2024-01-27T14:44:44;21.50;;;10.00;;
82948;SDS011;72736;50.236;18.876;2024-01-27T14:49:52;19.70;;;8.70;;
82948;SDS011;72736;50.236;18.876;2024-01-27T15:01:16;25.90;;;7.80;;
82948;SDS011;72736;50.236;18.876;2024-01-27T15:06:22;26.80;;;8.90;;
82948;SDS011;72736;50.236;18.876;2024-01-27T15:11:29;19.80;;;6.90;;
82948;SDS011;72736;50.236;18.876;2024-01-27T15:16:34;19.30;;;7.30;;
82948;SDS011;72736;50.236;18.876;2024-01-27T15:21:40;21.70;;;8.90;;
82948;SDS011;72736;50.236;18.876;2024-01-27T15:26:46;27.50;;;10.70;;
82948;SDS011;72736;50.236;18.876;2024-01-27T15:31:54;25.30;;;7.50;;
82948;SDS011;72736;50.236;18.876;2024-01-27T15:37:00;29.30;;;11.20;;
82948;SDS011;72736;50.236;18.876;2024-01-27T15:42:06;27.80;;;10.30;;
82948;SDS011;72736;50.236;18.876;2024-01-27T15:47:12;31.50;;;10.50;;
82948;SDS011;72736;50.236;18.876;2024-01-27T15:52:18;20.20;;;8.00;;
82948;SDS011;72736;50.236;18.876;2024-01-27T15:57:23;20.00;;;8.30;;
82948;SDS011;72736;50.236;18.876;2024-01-27T16:02:30;20.60;;;8.80;;
82948;SDS011;72736;50.236;18.876;2024-01-27T16:07:36;16.30;;;7.30;;
82948;SDS011;72736;50.236;18.876;2024-01-27T16:12:42;21.90;;;10.10;;
82948;SDS011;72736;50.236;18.876;2024-01-27T16:17:48;23.50;;;9.80;;
82948;SDS011;72736;50.236;18.876;2024-01-27T16:22:54;30.90;;;10.40;;
82948;SDS011;72736;50.236;18.876;2024-01-27T16:27:59;28.70;;;10.50;;
82948;SDS011;72736;50.236;18.876;2024-01-27T16:33:05;26.60;;;9.80;;
82948;SDS011;72736;50.236;18.876;2024-01-27T16:38:11;24.60;;;10.80;;
82948;SDS011;72736;50.236;18.876;2024-01-27T16:43:17;23.70;;;11.50;;
82948;SDS011;72736;50.236;18.876;2024-01-27T16:48:22;23.90;;;10.10;;
82948;SDS011;72736;50.236;18.876;2024-01-27T16:53:28;25.40;;;8.90;;
82948;SDS011;72736;50.236;18.876;2024-01-27T16:58:37;22.10;;;7.30;;
82948;SDS011;72736;50.236;18.876;2024-01-27T17:03:44;18.50;;;5.50;;
82948;SDS011;72736;50.236;18.876;2024-01-27T17:08:50;13.80;;;5.20;;
82948;SDS011;72736;50.236;18.876;2024-01-27T17:13:56;21.70;;;6.20;;
82948;SDS011;72736;50.236;18.876;2024-01-27T17:19:02;15.10;;;5.60;;
82948;SDS011;72736;50.236;18.876;2024-01-27T17:24:09;22.70;;;8.40;;
82948;SDS011;72736;50.236;18.876;2024-01-27T17:29:15;18.10;;;5.10;;
82948;SDS011;72736;50.236;18.876;2024-01-27T17:34:21;17.90;;;5.90;;
82948;SDS011;72736;50.236;18.876;2024-01-27T17:39:27;20.00;;;7.00;;
82948;SDS011;72736;50.236;18.876;2024-01-27T17:44:33;15.50;;;6.90;;
82948;SDS011;72736;50.236;18.876;2024-01-27T17:49:38;21.80;;;6.70;;
82948;SDS011;72736;50.236;18.876;2024-01-27T17:54:44;15.50;;;5.40;;
82948;SDS011;72736;50.236;18.876;2024-01-27T17:59:50;15.70;;;5.90;;
82948;SDS011;72736;50.236;18.876;2024-01-27T18:04:58;16.50;;;5.30;;
82948;SDS011;72736;50.236;18.876;2024-01-27T18:10:04;14.50;;;5.00;;
82948;SDS011;72736;50.236;18.876;2024-01-27T18:15:12;12.50;;;4.30;;
82948;SDS011;72736;50.236;18.876;2024-01-27T18:20:17;21.00;;;7.10;;
82948;SDS011;72736;50.236;18.876;2024-01-27T18:25:23;13.80;;;5.30;;
82948;SDS011;72736;50.236;18.876;2024-01-27T18:30:29;12.00;;;3.90;;
82948;SDS011;72736;50.236;18.876;2024-01-27T18:35:35;14.40;;;5.50;;
82948;SDS011;72736;50.236;18.876;2024-01-27T18:40:40;17.70;;;7.30;;
82948;SDS011;72736;50.236;18.876;2024-01-27T18:45:46;30.20;;;6.40;;
82948;SDS011;72736;50.236;18.876;2024-01-27T18:50:52;27.00;;;6.90;;
82948;SDS011;72736;50.236;18.876;2024-01-27T18:55:57;16.10;;;5.20;;
82948;SDS011;72736;50.236;18.876;2024-01-27T19:01:03;14.20;;;4.80;;
82948;SDS011;72736;50.236;18.876;2024-01-27T19:06:09;15.10;;;5.60;;
82948;SDS011;72736;50.236;18.876;2024-01-27T19:11:15;18.00;;;5.30;;
82948;SDS011;72736;50.236;18.876;2024-01-27T19:16:21;14.00;;;5.10;;
82948;SDS011;72736;50.236;18.876;2024-01-27T19:21:27;15.90;;;5.70;;
82948;SDS011;72736;50.236;18.876;2024-01-27T19:26:33;21.10;;;7.40;;
82948;SDS011;72736;50.236;18.876;2024-01-27T19:31:39;14.10;;;6.00;;
82948;SDS011;72736;50.236;18.876;2024-01-27T19:36:47;12.40;;;5.50;;
82948;SDS011;72736;50.236;18.876;2024-01-27T19:41:53;14.30;;;5.70;;
82948;SDS011;72736;50.236;18.876;2024-01-27T19:46:58;22.50;;;7.50;;
82948;SDS011;72736;50.236;18.876;2024-01-27T19:52:07;21.60;;;8.60;;
82948;SDS011;72736;50.236;18.876;2024-01-27T19:57:14;20.40;;;8.60;;
82948;SDS011;72736;50.236;18.876;2024-01-27T20:02:20;18.20;;;7.00;;
82948;SDS011;72736;50.236;18.876;2024-01-27T20:07:26;18.70;;;6.90;;
82948;SDS011;72736;50.236;18.876;2024-01-27T20:12:34;25.30;;;7.90;;
82948;SDS011;72736;50.236;18.876;2024-01-27T20:17:41;22.30;;;8.40;;
82948;SDS011;72736;50.236;18.876;2024-01-27T20:22:47;23.10;;;9.00;;
82948;SDS011;72736;50.236;18.876;2024-01-27T20:27:55;18.50;;;7.00;;
82948;SDS011;72736;50.236;18.876;2024-01-27T20:33:01;18.40;;;6.70;;
82948;SDS011;72736;50.236;18.876;2024-01-27T20:38:07;25.30;;;8.50;;
82948;SDS011;72736;50.236;18.876;2024-01-27T20:43:13;20.30;;;8.80;;
82948;SDS011;72736;50.236;18.876;2024-01-27T20:48:19;20.10;;;7.80;;
82948;SDS011;72736;50.236;18.876;2024-01-27T20:53:26;20.90;;;8.40;;
82948;SDS011;72736;50.236;18.876;2024-01-27T20:58:32;32.80;;;10.30;;
82948;SDS011;72736;50.236;18.876;2024-01-27T21:03:39;43.90;;;14.30;;
82948;SDS011;72736;50.236;18.876;2024-01-27T21:08:45;46.40;;;15.10;;
82948;SDS011;72736;50.236;18.876;2024-01-27T21:13:51;45.80;;;15.00;;
82948;SDS011;72736;50.236;18.876;2024-01-27T21:18:57;42.00;;;14.00;;
82948;SDS011;72736;50.236;18.876;2024-01-27T21:24:04;41.40;;;14.10;;
82948;SDS011;72736;50.236;18.876;2024-01-27T21:29:11;36.50;;;11.20;;
82948;SDS011;72736;50.236;18.876;2024-01-27T21:34:17;31.80;;;11.30;;
82948;SDS011;72736;50.236;18.876;2024-01-27T21:39:23;33.60;;;9.00;;
82948;SDS011;72736;50.236;18.876;2024-01-27T21:44:29;33.00;;;10.50;;
82948;SDS011;72736;50.236;18.876;2024-01-27T21:49:34;37.50;;;9.70;;
82948;SDS011;72736;50.236;18.876;2024-01-27T21:54:43;33.20;;;9.80;;
82948;SDS011;72736;50.236;18.876;2024-01-27T21:59:49;25.40;;;8.40;;
82948;SDS011;72736;50.236;18.876;2024-01-27T22:04:55;26.80;;;8.00;;
82948;SDS011;72736;50.236;18.876;2024-01-27T22:10:00;28.10;;;8.60;;
82948;SDS011;72736;50.236;18.876;2024-01-27T22:15:07;27.00;;;9.00;;
82948;SDS011;72736;50.236;18.876;2024-01-27T22:20:13;28.40;;;10.10;;
82948;SDS011;72736;50.236;18.876;2024-01-27T22:25:19;31.80;;;8.40;;
82948;SDS011;72736;50.236;18.876;2024-01-27T22:30:25;27.10;;;7.40;;
82948;SDS011;72736;50.236;18.876;2024-01-27T22:35:30;22.20;;;7.60;;
82948;SDS011;72736;50.236;18.876;2024-01-27T22:40:39;23.70;;;7.40;;
82948;SDS011;72736;50.236;18.876;2024-01-27T22:45:45;25.90;;;7.80;;
82948;SDS011;72736;50.236;18.876;2024-01-27T22:50:51;26.20;;;8.10;;
82948;SDS011;72736;50.236;18.876;2024-01-27T22:55:58;26.00;;;8.10;;
82948;SDS011;72736;50.236;18.876;2024-01-27T23:01:05;21.10;;;7.10;;
82948;SDS011;72736;50.236;18.876;2024-01-27T23:06:12;27.40;;;7.60;;
82948;SDS011;72736;50.236;18.876;2024-01-27T23:11:18;18.80;;;5.80;;
82948;SDS011;72736;50.236;18.876;2024-01-27T23:16:24;22.30;;;5.90;;
82948;SDS011;72736;50.236;18.876;2024-01-27T23:21:30;17.90;;;6.10;;
82948;SDS011;72736;50.236;18.876;2024-01-27T23:26:36;19.00;;;6.80;;
82948;SDS011;72736;50.236;18.876;2024-01-27T23:31:42;30.00;;;8.20;;
82948;SDS011;72736;50.236;18.876;2024-01-27T23:36:48;20.70;;;6.90;;
82948;SDS011;72736;50.236;18.876;2024-01-27T23:41:53;17.10;;;6.40;;
82948;SDS011;72736;50.236;18.876;2024-01-27T23:46:59;16.80;;;5.70;;
82948;SDS011;72736;50.236;18.876;2024-01-27T23:52:06;18.00;;;6.10;;
82948;SDS011;72736;50.236;18.876;2024-01-27T23:57:14;17.70;;;5.30;;
